This is the latest recevied weather packets stored in our database for station/object VU3IZK-13. If no packets are shown the sender has not sent any weather packets the latest 10 day(s).
| Time | Temp. | Humidity | Pressure | Rain* | Wind** | Luminosity | Snow |
|---|---|---|---|---|---|---|---|
| 1777006820 | 33.89° C | 31% | 0 hPa | 0 mm | - | - | - |
| 1777005915 | 33.33° C | 37% | 0 hPa | 0 mm | - | - | - |
| 1777005038 | 32.78° C | 41% | 0 hPa | 0 mm | - | - | - |
| 1777004139 | 31.67° C | 41% | 0 hPa | 0 mm | - | - | - |
| 1777003217 | 30.56° C | 46% | 0 hPa | 0 mm | - | - | - |
| 1777002317 | 30° C | 51% | 0 hPa | 0 mm | - | - | - |
| 1777001441 | 28.89° C | 58% | 0 hPa | 0 mm | - | - | - |
| 1777000542 | 27.22° C | 62% | 0 hPa | 0 mm | - | - | - |
| 1776999620 | 26.11° C | 65% | 0 hPa | 0 mm | - | - | - |
| 1776998721 | 25.56° C | 67% | 0 hPa | 0 mm | - | - | - |
| 1776997840 | 25° C | 68% | 0 hPa | 0.25 mm | - | - | - |
| 1776996919 | 24.44° C | 70% | 0 hPa | 0.25 mm | - | - | - |
| 1776996015 | 23.89° C | 77% | 0 hPa | 0.25 mm | - | - | - |
| 1776995137 | 23.33° C | 80% | 0 hPa | 0.25 mm | - | - | - |
| 1776994238 | 22.78° C | 80% | 0 hPa | 0 mm | - | - | - |
| 1776993316 | 22.78° C | 80% | 0 hPa | 0 mm | - | - | - |
| 1776992414 | 22.78° C | 77% | 0 hPa | 0 mm | - | - | - |
| 1776991535 | 22.78° C | 79% | 0 hPa | 0 mm | - | - | - |
| 1776990615 | 22.78° C | 77% | 0 hPa | 0 mm | - | - | - |
| 1776989715 | 23.33° C | 73% | 0 hPa | 0 mm | - | - | - |
| 1776988815 | 23.33° C | 70% | 0 hPa | 0 mm | - | - | - |
| 1776987937 | 23.89° C | 70% | 0 hPa | 0 mm | - | - | - |
| 1776987018 | 23.89° C | 67% | 0 hPa | 0 mm | - | - | - |
| 1776986113 | 24.44° C | 64% | 0 hPa | 0 mm | - | - | - |
| 1776985254 | 25° C | 63% | 0 hPa | 0 mm | - | - | - |
* Rain latest hour (hover to see other rain measurements)
** Current wind speed in m/s (hover to see current wind gust speed)